sensor_id;sensor_type;location;lat;lon;timestamp;temperature;humidity
66506;HTU21D;53332;51.082;5.832;2022-12-29T09:36:32;15.14;92.89
66506;HTU21D;53332;51.082;5.832;2022-12-29T09:38:58;15.28;94.82
66506;HTU21D;53332;51.082;5.832;2022-12-29T09:41:31;15.39;95.80
66506;HTU21D;53332;51.082;5.832;2022-12-29T09:46:43;15.57;95.02
66506;HTU21D;53332;51.082;5.832;2022-12-29T09:49:39;15.67;94.00
66506;HTU21D;53332;51.082;5.832;2022-12-29T09:54:57;15.85;93.15
66506;HTU21D;53332;51.082;5.832;2022-12-29T09:57:46;15.96;92.25
66506;HTU21D;53332;51.082;5.832;2022-12-29T10:00:18;16.02;91.53
66506;HTU21D;53332;51.082;5.832;2022-12-29T10:02:50;16.10;90.69
66506;HTU21D;53332;51.082;5.832;2022-12-29T10:05:40;16.20;89.59
66506;HTU21D;53332;51.082;5.832;2022-12-29T10:11:08;16.32;88.14
66506;HTU21D;53332;51.082;5.832;2022-12-29T10:14:00;16.40;87.36
66506;HTU21D;53332;51.082;5.832;2022-12-29T10:19:35;16.52;85.58
66506;HTU21D;53332;51.082;5.832;2022-12-29T10:22:08;16.58;85.00
66506;HTU21D;53332;51.082;5.832;2022-12-29T10:24:38;16.63;84.69
66506;HTU21D;53332;51.082;5.832;2022-12-29T10:27:10;16.66;85.21
66506;HTU21D;53332;51.082;5.832;2022-12-29T10:29:43;16.69;85.19
66506;HTU21D;53332;51.082;5.832;2022-12-29T10:34:57;16.77;84.79
66506;HTU21D;53332;51.082;5.832;2022-12-29T10:37:39;16.81;84.39
66506;HTU21D;53332;51.082;5.832;2022-12-29T10:42:57;16.87;84.25
66506;HTU21D;53332;51.082;5.832;2022-12-29T10:45:28;16.89;83.97
66506;HTU21D;53332;51.082;5.832;2022-12-29T10:50:37;17.35;78.84
66506;HTU21D;53332;51.082;5.832;2022-12-29T10:53:21;17.34;79.14
66506;HTU21D;53332;51.082;5.832;2022-12-29T10:55:49;17.35;78.37
66506;HTU21D;53332;51.082;5.832;2022-12-29T10:58:16;17.33;78.35
66506;HTU21D;53332;51.082;5.832;2022-12-29T11:00:47;17.29;77.98
66506;HTU21D;53332;51.082;5.832;2022-12-29T11:03:42;17.10;80.17
66506;HTU21D;53332;51.082;5.832;2022-12-29T11:06:17;16.96;80.17
66506;HTU21D;53332;51.082;5.832;2022-12-29T11:09:01;16.80;81.37
66506;HTU21D;53332;51.082;5.832;2022-12-29T11:11:33;16.65;82.40
66506;HTU21D;53332;51.082;5.832;2022-12-29T11:14:12;16.51;83.25
66506;HTU21D;53332;51.082;5.832;2022-12-29T11:16:40;16.40;84.26
66506;HTU21D;53332;51.082;5.832;2022-12-29T11:19:20;16.31;86.25
66506;HTU21D;53332;51.082;5.832;2022-12-29T11:21:46;16.25;86.70
66506;HTU21D;53332;51.082;5.832;2022-12-29T11:26:45;16.13;87.94
66506;HTU21D;53332;51.082;5.832;2022-12-29T11:29:21;16.07;88.35
66506;HTU21D;53332;51.082;5.832;2022-12-29T11:31:50;16.04;88.47
66506;HTU21D;53332;51.082;5.832;2022-12-29T11:34:34;16.02;88.92
66506;HTU21D;53332;51.082;5.832;2022-12-29T11:37:16;15.98;89.00
66506;HTU21D;53332;51.082;5.832;2022-12-29T11:39:55;15.97;89.36
66506;HTU21D;53332;51.082;5.832;2022-12-29T11:42:46;15.92;89.78
66506;HTU21D;53332;51.082;5.832;2022-12-29T11:45:25;15.92;89.89
66506;HTU21D;53332;51.082;5.832;2022-12-29T11:48:15;15.91;90.15
66506;HTU21D;53332;51.082;5.832;2022-12-29T11:50:50;15.89;90.28
66506;HTU21D;53332;51.082;5.832;2022-12-29T11:53:28;15.89;90.44
66506;HTU21D;53332;51.082;5.832;2022-12-29T11:56:02;15.88;90.60
66506;HTU21D;53332;51.082;5.832;2022-12-29T11:58:32;15.88;90.84
66506;HTU21D;53332;51.082;5.832;2022-12-29T12:04:09;15.91;90.72
66506;HTU21D;53332;51.082;5.832;2022-12-29T12:06:45;15.92;90.50
66506;HTU21D;53332;51.082;5.832;2022-12-29T12:09:29;15.92;90.68
66506;HTU21D;53332;51.082;5.832;2022-12-29T12:11:59;15.91;90.84
66506;HTU21D;53332;51.082;5.832;2022-12-29T12:14:38;15.92;91.18
66506;HTU21D;53332;51.082;5.832;2022-12-29T12:17:23;15.95;90.61
66506;HTU21D;53332;51.082;5.832;2022-12-29T12:20:16;15.93;90.54
66506;HTU21D;53332;51.082;5.832;2022-12-29T12:22:53;15.92;90.81
66506;HTU21D;53332;51.082;5.832;2022-12-29T12:25:25;15.95;90.44
66506;HTU21D;53332;51.082;5.832;2022-12-29T12:28:05;15.95;90.04
66506;HTU21D;53332;51.082;5.832;2022-12-29T12:30:42;15.96;89.98
66506;HTU21D;53332;51.082;5.832;2022-12-29T12:35:41;15.97;89.68
66506;HTU21D;53332;51.082;5.832;2022-12-29T12:41:19;15.98;89.85
66506;HTU21D;53332;51.082;5.832;2022-12-29T12:44:01;15.99;89.79
66506;HTU21D;53332;51.082;5.832;2022-12-29T13:00:21;16.04;89.24
66506;HTU21D;53332;51.082;5.832;2022-12-29T13:03:15;16.05;89.46
66506;HTU21D;53332;51.082;5.832;2022-12-29T13:13:59;16.02;90.37
66506;HTU21D;53332;51.082;5.832;2022-12-29T13:16:31;16.03;90.55
66506;HTU21D;53332;51.082;5.832;2022-12-29T13:22:12;16.02;91.01
66506;HTU21D;53332;51.082;5.832;2022-12-29T13:27:31;16.03;91.12
66506;HTU21D;53332;51.082;5.832;2022-12-29T13:30:03;16.04;91.22
66506;HTU21D;53332;51.082;5.832;2022-12-29T13:35:38;16.05;91.33
66506;HTU21D;53332;51.082;5.832;2022-12-29T13:38:36;16.04;91.48
66506;HTU21D;53332;51.082;5.832;2022-12-29T13:41:30;16.05;92.15
66506;HTU21D;53332;51.082;5.832;2022-12-29T13:43:55;16.10;91.07
66506;HTU21D;53332;51.082;5.832;2022-12-29T13:46:42;16.08;90.89
66506;HTU21D;53332;51.082;5.832;2022-12-29T13:49:20;16.10;90.78
66506;HTU21D;53332;51.082;5.832;2022-12-29T13:52:01;16.08;90.62
66506;HTU21D;53332;51.082;5.832;2022-12-29T13:54:48;16.06;90.24
66506;HTU21D;53332;51.082;5.832;2022-12-29T13:57:41;16.06;90.16
66506;HTU21D;53332;51.082;5.832;2022-12-29T14:00:22;16.08;90.05
66506;HTU21D;53332;51.082;5.832;2022-12-29T14:08:35;16.11;89.61
66506;HTU21D;53332;51.082;5.832;2022-12-29T14:11:11;16.12;89.83
66506;HTU21D;53332;51.082;5.832;2022-12-29T14:13:43;16.12;89.60
66506;HTU21D;53332;51.082;5.832;2022-12-29T14:16:31;16.13;89.80
66506;HTU21D;53332;51.082;5.832;2022-12-29T14:19:12;16.14;89.40
66506;HTU21D;53332;51.082;5.832;2022-12-29T14:21:40;16.13;89.23
66506;HTU21D;53332;51.082;5.832;2022-12-29T14:32:37;16.11;88.44
66506;HTU21D;53332;51.082;5.832;2022-12-29T14:35:37;16.10;88.28
66506;HTU21D;53332;51.082;5.832;2022-12-29T14:38:24;16.10;88.18
66506;HTU21D;53332;51.082;5.832;2022-12-29T14:40:51;16.10;88.17
66506;HTU21D;53332;51.082;5.832;2022-12-29T14:43:23;16.08;88.16
66506;HTU21D;53332;51.082;5.832;2022-12-29T14:45:57;16.08;88.09
66506;HTU21D;53332;51.082;5.832;2022-12-29T14:48:37;16.10;88.06
66506;HTU21D;53332;51.082;5.832;2022-12-29T14:51:18;16.11;88.60
66506;HTU21D;53332;51.082;5.832;2022-12-29T14:53:50;16.12;88.06
66506;HTU21D;53332;51.082;5.832;2022-12-29T14:56:19;16.14;88.01
66506;HTU21D;53332;51.082;5.832;2022-12-29T14:59:01;16.14;88.23
66506;HTU21D;53332;51.082;5.832;2022-12-29T15:01:45;16.14;88.65
66506;HTU21D;53332;51.082;5.832;2022-12-29T15:04:30;16.16;88.65
66506;HTU21D;53332;51.082;5.832;2022-12-29T15:06:56;16.15;90.11
66506;HTU21D;53332;51.082;5.832;2022-12-29T15:09:54;16.20;90.31
66506;HTU21D;53332;51.082;5.832;2022-12-29T15:15:00;16.22;90.14
66506;HTU21D;53332;51.082;5.832;2022-12-29T15:17:30;16.22;90.33
66506;HTU21D;53332;51.082;5.832;2022-12-29T15:19:58;16.20;91.13
66506;HTU21D;53332;51.082;5.832;2022-12-29T15:22:25;16.22;92.59
66506;HTU21D;53332;51.082;5.832;2022-12-29T15:24:53;16.24;91.66
66506;HTU21D;53332;51.082;5.832;2022-12-29T15:27:25;16.25;91.87
66506;HTU21D;53332;51.082;5.832;2022-12-29T15:30:00;16.27;92.41
66506;HTU21D;53332;51.082;5.832;2022-12-29T15:32:45;16.22;92.53
66506;HTU21D;53332;51.082;5.832;2022-12-29T15:35:30;16.19;91.88
66506;HTU21D;53332;51.082;5.832;2022-12-29T15:37:56;16.19;91.85
66506;HTU21D;53332;51.082;5.832;2022-12-29T15:40:32;16.18;91.83
66506;HTU21D;53332;51.082;5.832;2022-12-29T15:45:42;16.16;91.92
66506;HTU21D;53332;51.082;5.832;2022-12-29T15:48:17;16.16;92.08
66506;HTU21D;53332;51.082;5.832;2022-12-29T15:50:45;16.15;92.30
66506;HTU21D;53332;51.082;5.832;2022-12-29T15:53:18;16.15;93.02
66506;HTU21D;53332;51.082;5.832;2022-12-29T15:55:45;16.19;92.73
66506;HTU21D;53332;51.082;5.832;2022-12-29T15:58:23;16.18;92.34
66506;HTU21D;53332;51.082;5.832;2022-12-29T16:00:51;16.14;92.09
66506;HTU21D;53332;51.082;5.832;2022-12-29T16:03:18;16.12;91.95
66506;HTU21D;53332;51.082;5.832;2022-12-29T16:05:57;16.08;91.84
66506;HTU21D;53332;51.082;5.832;2022-12-29T16:08:36;16.05;91.76
66506;HTU21D;53332;51.082;5.832;2022-12-29T16:11:20;16.02;91.79
66506;HTU21D;53332;51.082;5.832;2022-12-29T16:13:49;15.98;91.77
66506;HTU21D;53332;51.082;5.832;2022-12-29T16:16:22;15.96;91.98
66506;HTU21D;53332;51.082;5.832;2022-12-29T16:18:51;15.93;92.05
66506;HTU21D;53332;51.082;5.832;2022-12-29T16:21:38;15.88;91.40
66506;HTU21D;53332;51.082;5.832;2022-12-29T16:24:13;15.87;91.46
66506;HTU21D;53332;51.082;5.832;2022-12-29T16:26:46;15.85;93.63
66506;HTU21D;53332;51.082;5.832;2022-12-29T16:29:14;15.86;92.21
66506;HTU21D;53332;51.082;5.832;2022-12-29T16:34:33;15.85;91.87
66506;HTU21D;53332;51.082;5.832;2022-12-29T16:37:28;15.84;91.72
66506;HTU21D;53332;51.082;5.832;2022-12-29T16:39:54;15.84;91.59
66506;HTU21D;53332;51.082;5.832;2022-12-29T16:47:48;15.84;92.47
66506;HTU21D;53332;51.082;5.832;2022-12-29T16:50:21;15.88;91.15
66506;HTU21D;53332;51.082;5.832;2022-12-29T16:52:51;15.88;90.81
66506;HTU21D;53332;51.082;5.832;2022-12-29T16:55:18;15.88;90.64
66506;HTU21D;53332;51.082;5.832;2022-12-29T16:57:47;15.87;90.49
66506;HTU21D;53332;51.082;5.832;2022-12-29T17:00:27;15.86;90.38
66506;HTU21D;53332;51.082;5.832;2022-12-29T17:02:57;15.85;90.31
66506;HTU21D;53332;51.082;5.832;2022-12-29T17:05:23;15.84;90.25
66506;HTU21D;53332;51.082;5.832;2022-12-29T17:07:48;15.83;90.22
66506;HTU21D;53332;51.082;5.832;2022-12-29T17:10:14;15.81;90.19
66506;HTU21D;53332;51.082;5.832;2022-12-29T17:12:43;15.82;90.15
66506;HTU21D;53332;51.082;5.832;2022-12-29T17:17:45;15.80;90.04
66506;HTU21D;53332;51.082;5.832;2022-12-29T17:20:19;15.78;89.97
66506;HTU21D;53332;51.082;5.832;2022-12-29T17:22:45;15.78;89.91
66506;HTU21D;53332;51.082;5.832;2022-12-29T17:25:14;15.76;89.85
66506;HTU21D;53332;51.082;5.832;2022-12-29T17:27:47;15.75;89.86
66506;HTU21D;53332;51.082;5.832;2022-12-29T17:30:19;15.74;89.76
66506;HTU21D;53332;51.082;5.832;2022-12-29T17:32:56;15.75;89.81
66506;HTU21D;53332;51.082;5.832;2022-12-29T17:35:22;15.73;89.74
66506;HTU21D;53332;51.082;5.832;2022-12-29T17:37:49;15.73;89.71
66506;HTU21D;53332;51.082;5.832;2022-12-29T17:40:17;15.72;89.66
66506;HTU21D;53332;51.082;5.832;2022-12-29T17:42:46;15.72;89.60
66506;HTU21D;53332;51.082;5.832;2022-12-29T17:45:20;15.72;89.57
66506;HTU21D;53332;51.082;5.832;2022-12-29T17:47:47;15.72;89.50
66506;HTU21D;53332;51.082;5.832;2022-12-29T17:50:15;15.72;89.40
66506;HTU21D;53332;51.082;5.832;2022-12-29T17:52:50;15.73;89.31
66506;HTU21D;53332;51.082;5.832;2022-12-29T17:55:19;15.73;89.21
66506;HTU21D;53332;51.082;5.832;2022-12-29T17:57:45;15.74;89.08
66506;HTU21D;53332;51.082;5.832;2022-12-29T18:00:27;15.73;89.01
66506;HTU21D;53332;51.082;5.832;2022-12-29T18:02:53;15.75;88.98
66506;HTU21D;53332;51.082;5.832;2022-12-29T18:05:28;15.75;88.83
66506;HTU21D;53332;51.082;5.832;2022-12-29T18:07:57;15.76;88.82
66506;HTU21D;53332;51.082;5.832;2022-12-29T18:10:25;15.77;88.80
66506;HTU21D;53332;51.082;5.832;2022-12-29T18:12:53;15.78;88.69
66506;HTU21D;53332;51.082;5.832;2022-12-29T18:15:31;15.78;88.64
66506;HTU21D;53332;51.082;5.832;2022-12-29T18:18:11;15.81;88.58
66506;HTU21D;53332;51.082;5.832;2022-12-29T18:20:38;15.82;88.54
66506;HTU21D;53332;51.082;5.832;2022-12-29T18:23:03;15.82;88.46
66506;HTU21D;53332;51.082;5.832;2022-12-29T18:25:40;15.81;88.41
66506;HTU21D;53332;51.082;5.832;2022-12-29T18:28:06;15.83;88.34
66506;HTU21D;53332;51.082;5.832;2022-12-29T18:30:32;15.84;88.31
66506;HTU21D;53332;51.082;5.832;2022-12-29T18:32:57;15.85;88.22
66506;HTU21D;53332;51.082;5.832;2022-12-29T18:35:39;15.84;88.16
66506;HTU21D;53332;51.082;5.832;2022-12-29T18:38:06;15.86;88.09
66506;HTU21D;53332;51.082;5.832;2022-12-29T18:40:33;15.84;88.02
66506;HTU21D;53332;51.082;5.832;2022-12-29T18:42:59;15.84;88.01
66506;HTU21D;53332;51.082;5.832;2022-12-29T18:45:25;15.82;87.96
66506;HTU21D;53332;51.082;5.832;2022-12-29T18:47:50;15.86;88.92
66506;HTU21D;53332;51.082;5.832;2022-12-29T18:50:17;15.89;88.20
66506;HTU21D;53332;51.082;5.832;2022-12-29T18:52:43;15.88;87.93
66506;HTU21D;53332;51.082;5.832;2022-12-29T18:55:18;15.88;87.78
66506;HTU21D;53332;51.082;5.832;2022-12-29T18:57:44;15.85;87.77
66506;HTU21D;53332;51.082;5.832;2022-12-29T19:00:11;15.84;87.82
66506;HTU21D;53332;51.082;5.832;2022-12-29T19:02:37;15.83;87.81
66506;HTU21D;53332;51.082;5.832;2022-12-29T19:05:05;15.81;88.02
66506;HTU21D;53332;51.082;5.832;2022-12-29T19:07:38;15.80;87.86
66506;HTU21D;53332;51.082;5.832;2022-12-29T19:10:03;15.76;87.95
66506;HTU21D;53332;51.082;5.832;2022-12-29T19:12:29;15.75;87.98
66506;HTU21D;53332;51.082;5.832;2022-12-29T19:14:55;15.76;87.98
66506;HTU21D;53332;51.082;5.832;2022-12-29T19:17:20;15.74;88.07
66506;HTU21D;53332;51.082;5.832;2022-12-29T19:19:46;15.73;88.03
66506;HTU21D;53332;51.082;5.832;2022-12-29T19:22:11;15.74;87.96
66506;HTU21D;53332;51.082;5.832;2022-12-29T19:24:36;15.72;87.99
66506;HTU21D;53332;51.082;5.832;2022-12-29T19:27:02;15.72;88.09
66506;HTU21D;53332;51.082;5.832;2022-12-29T19:29:27;15.71;87.88
66506;HTU21D;53332;51.082;5.832;2022-12-29T19:31:54;15.70;87.92
66506;HTU21D;53332;51.082;5.832;2022-12-29T19:34:20;15.69;87.89
66506;HTU21D;53332;51.082;5.832;2022-12-29T19:36:45;15.68;87.92
66506;HTU21D;53332;51.082;5.832;2022-12-29T19:39:12;15.68;87.84
66506;HTU21D;53332;51.082;5.832;2022-12-29T19:41:37;15.68;87.99
66506;HTU21D;53332;51.082;5.832;2022-12-29T19:44:03;15.68;87.80
66506;HTU21D;53332;51.082;5.832;2022-12-29T19:46:28;15.68;87.99
66506;HTU21D;53332;51.082;5.832;2022-12-29T19:48:54;15.68;87.80
66506;HTU21D;53332;51.082;5.832;2022-12-29T19:51:23;15.66;87.70
66506;HTU21D;53332;51.082;5.832;2022-12-29T19:53:49;15.66;87.63
66506;HTU21D;53332;51.082;5.832;2022-12-29T19:56:15;15.66;87.57
66506;HTU21D;53332;51.082;5.832;2022-12-29T19:58:41;15.66;87.61
66506;HTU21D;53332;51.082;5.832;2022-12-29T20:01:13;15.65;87.57
66506;HTU21D;53332;51.082;5.832;2022-12-29T20:03:40;15.65;87.51
66506;HTU21D;53332;51.082;5.832;2022-12-29T20:06:06;15.66;87.45
66506;HTU21D;53332;51.082;5.832;2022-12-29T20:08:33;15.63;87.42
66506;HTU21D;53332;51.082;5.832;2022-12-29T20:11:02;15.63;87.48
66506;HTU21D;53332;51.082;5.832;2022-12-29T20:13:27;15.63;87.33
66506;HTU21D;53332;51.082;5.832;2022-12-29T20:15:57;15.62;87.38
66506;HTU21D;53332;51.082;5.832;2022-12-29T20:18:23;15.65;87.32
66506;HTU21D;53332;51.082;5.832;2022-12-29T20:20:48;15.65;87.28
66506;HTU21D;53332;51.082;5.832;2022-12-29T20:23:14;15.65;87.20
66506;HTU21D;53332;51.082;5.832;2022-12-29T20:25:39;15.63;87.12
66506;HTU21D;53332;51.082;5.832;2022-12-29T20:28:05;15.65;86.98
66506;HTU21D;53332;51.082;5.832;2022-12-29T20:30:30;15.63;87.00
66506;HTU21D;53332;51.082;5.832;2022-12-29T20:32:56;15.63;86.95
66506;HTU21D;53332;51.082;5.832;2022-12-29T20:35:21;15.63;86.99
66506;HTU21D;53332;51.082;5.832;2022-12-29T20:37:47;15.65;86.90
66506;HTU21D;53332;51.082;5.832;2022-12-29T20:40:12;15.65;86.83
66506;HTU21D;53332;51.082;5.832;2022-12-29T20:42:38;15.66;86.87
66506;HTU21D;53332;51.082;5.832;2022-12-29T20:45:03;15.65;86.80
66506;HTU21D;53332;51.082;5.832;2022-12-29T20:47:29;15.63;86.79
66506;HTU21D;53332;51.082;5.832;2022-12-29T20:49:54;15.65;86.75
66506;HTU21D;53332;51.082;5.832;2022-12-29T20:52:20;15.66;86.68
66506;HTU21D;53332;51.082;5.832;2022-12-29T20:54:45;15.65;86.65
66506;HTU21D;53332;51.082;5.832;2022-12-29T20:57:11;15.65;86.61
66506;HTU21D;53332;51.082;5.832;2022-12-29T20:59:37;15.65;86.57
66506;HTU21D;53332;51.082;5.832;2022-12-29T21:02:03;15.65;86.52
66506;HTU21D;53332;51.082;5.832;2022-12-29T21:04:28;15.65;86.54
66506;HTU21D;53332;51.082;5.832;2022-12-29T21:06:54;15.65;86.50
66506;HTU21D;53332;51.082;5.832;2022-12-29T21:09:20;15.63;86.45
66506;HTU21D;53332;51.082;5.832;2022-12-29T21:11:46;15.65;86.47
66506;HTU21D;53332;51.082;5.832;2022-12-29T21:14:12;15.65;86.42
66506;HTU21D;53332;51.082;5.832;2022-12-29T21:16:37;15.63;86.47
66506;HTU21D;53332;51.082;5.832;2022-12-29T21:19:03;15.63;86.36
66506;HTU21D;53332;51.082;5.832;2022-12-29T21:21:28;15.63;86.36
66506;HTU21D;53332;51.082;5.832;2022-12-29T21:23:54;15.63;86.29
66506;HTU21D;53332;51.082;5.832;2022-12-29T21:26:22;15.62;86.29
66506;HTU21D;53332;51.082;5.832;2022-12-29T21:28:48;15.61;86.23
66506;HTU21D;53332;51.082;5.832;2022-12-29T21:31:24;15.62;86.23
66506;HTU21D;53332;51.082;5.832;2022-12-29T21:33:51;15.62;86.20
66506;HTU21D;53332;51.082;5.832;2022-12-29T21:36:17;15.62;86.31
66506;HTU21D;53332;51.082;5.832;2022-12-29T21:38:43;15.61;86.32
66506;HTU21D;53332;51.082;5.832;2022-12-29T21:41:11;15.61;86.16
66506;HTU21D;53332;51.082;5.832;2022-12-29T21:43:38;15.60;86.26
66506;HTU21D;53332;51.082;5.832;2022-12-29T21:46:04;15.61;86.25
66506;HTU21D;53332;51.082;5.832;2022-12-29T21:48:31;15.60;86.26
66506;HTU21D;53332;51.082;5.832;2022-12-29T21:53:59;15.60;86.15
66506;HTU21D;53332;51.082;5.832;2022-12-29T21:56:45;15.59;86.12
66506;HTU21D;53332;51.082;5.832;2022-12-29T21:59:15;15.58;86.17
66506;HTU21D;53332;51.082;5.832;2022-12-29T22:02:02;15.57;86.30
66506;HTU21D;53332;51.082;5.832;2022-12-29T22:04:47;15.58;86.34
66506;HTU21D;53332;51.082;5.832;2022-12-29T22:07:31;15.58;86.37
66506;HTU21D;53332;51.082;5.832;2022-12-29T22:10:15;15.56;86.45
66506;HTU21D;53332;51.082;5.832;2022-12-29T22:12:59;15.56;86.34
66506;HTU21D;53332;51.082;5.832;2022-12-29T22:15:32;15.56;86.18
66506;HTU21D;53332;51.082;5.832;2022-12-29T22:18:00;15.56;86.22
66506;HTU21D;53332;51.082;5.832;2022-12-29T22:20:30;15.55;86.00
66506;HTU21D;53332;51.082;5.832;2022-12-29T22:22:56;15.56;85.82
66506;HTU21D;53332;51.082;5.832;2022-12-29T22:25:22;15.55;85.74
66506;HTU21D;53332;51.082;5.832;2022-12-29T22:27:49;15.55;85.80
66506;HTU21D;53332;51.082;5.832;2022-12-29T22:30:15;15.56;85.80
66506;HTU21D;53332;51.082;5.832;2022-12-29T22:32:42;15.55;85.81
66506;HTU21D;53332;51.082;5.832;2022-12-29T22:35:09;15.54;85.80
66506;HTU21D;53332;51.082;5.832;2022-12-29T22:37:36;15.53;85.72
66506;HTU21D;53332;51.082;5.832;2022-12-29T22:40:03;15.54;85.75
66506;HTU21D;53332;51.082;5.832;2022-12-29T22:42:29;15.54;85.89
66506;HTU21D;53332;51.082;5.832;2022-12-29T22:44:54;15.54;85.74
66506;HTU21D;53332;51.082;5.832;2022-12-29T22:47:20;15.53;85.58
66506;HTU21D;53332;51.082;5.832;2022-12-29T22:49:45;15.52;85.27
66506;HTU21D;53332;51.082;5.832;2022-12-29T22:52:10;15.53;85.20
66506;HTU21D;53332;51.082;5.832;2022-12-29T22:54:36;15.52;85.19
66506;HTU21D;53332;51.082;5.832;2022-12-29T22:57:01;15.52;85.30
66506;HTU21D;53332;51.082;5.832;2022-12-29T22:59:27;15.53;85.47
66506;HTU21D;53332;51.082;5.832;2022-12-29T23:01:52;15.51;85.78
66506;HTU21D;53332;51.082;5.832;2022-12-29T23:04:18;15.52;85.61
66506;HTU21D;53332;51.082;5.832;2022-12-29T23:06:43;15.51;85.34
66506;HTU21D;53332;51.082;5.832;2022-12-29T23:09:15;15.52;85.22
66506;HTU21D;53332;51.082;5.832;2022-12-29T23:11:41;15.51;85.51
66506;HTU21D;53332;51.082;5.832;2022-12-29T23:14:06;15.49;85.14
66506;HTU21D;53332;51.082;5.832;2022-12-29T23:16:32;15.48;85.19
66506;HTU21D;53332;51.082;5.832;2022-12-29T23:18:57;15.48;84.90
66506;HTU21D;53332;51.082;5.832;2022-12-29T23:21:23;15.48;85.19
66506;HTU21D;53332;51.082;5.832;2022-12-29T23:23:48;15.47;84.91
66506;HTU21D;53332;51.082;5.832;2022-12-29T23:26:35;15.46;84.98
66506;HTU21D;53332;51.082;5.832;2022-12-29T23:29:04;15.45;85.13
66506;HTU21D;53332;51.082;5.832;2022-12-29T23:31:30;15.44;85.47
66506;HTU21D;53332;51.082;5.832;2022-12-29T23:33:57;15.44;85.42
66506;HTU21D;53332;51.082;5.832;2022-12-29T23:36:23;15.43;85.45
66506;HTU21D;53332;51.082;5.832;2022-12-29T23:38:49;15.43;84.94
66506;HTU21D;53332;51.082;5.832;2022-12-29T23:41:15;15.41;85.84
66506;HTU21D;53332;51.082;5.832;2022-12-29T23:43:40;15.41;85.57
66506;HTU21D;53332;51.082;5.832;2022-12-29T23:48:32;15.41;85.72
66506;HTU21D;53332;51.082;5.832;2022-12-29T23:50:58;15.40;85.82
66506;HTU21D;53332;51.082;5.832;2022-12-29T23:53:23;15.39;85.42
66506;HTU21D;53332;51.082;5.832;2022-12-29T23:55:53;15.39;85.46
66506;HTU21D;53332;51.082;5.832;2022-12-29T23:58:19;15.38;85.77
